Time;durP1;ratioP1;P1;durP2;ratioP2;P2;SDS_P1;SDS_P2;PMS_P1;PMS_P2;Temp;Humidity;BMP_temperature;BMP_pressure;BME280_temperature;BME280_humidity;BME280_pressure;Samples;Min_cycle;Max_cycle;Signal;HPM_P1;HPM_P2
2023/05/23 00:00:13;;;;;;;2.37;2.27;;;24.00;84.40;;;;;;5083096;28;20479;-82
2023/05/23 00:02:40;;;;;;;2.77;2.57;;;24.00;84.10;;;;;;5083930;28;20461;-84
2023/05/23 00:05:08;;;;;;;2.60;2.43;;;24.00;84.30;;;;;;5082305;28;20432;-82
2023/05/23 00:07:35;;;;;;;2.53;2.33;;;24.00;84.20;;;;;;5082471;28;20470;-82
2023/05/23 00:10:01;;;;;;;2.27;2.17;;;24.00;84.30;;;;;;5083845;28;20426;-82
2023/05/23 00:12:28;;;;;;;2.60;2.43;;;24.00;84.30;;;;;;5082442;28;20460;-82
2023/05/23 00:14:56;;;;;;;2.53;2.43;;;24.00;84.40;;;;;;5082237;28;20463;-81
2023/05/23 00:17:24;;;;;;;2.87;2.67;;;24.00;84.70;;;;;;5084107;28;20948;-82
2023/05/23 00:19:51;;;;;;;2.30;2.20;;;24.00;84.70;;;;;;5082776;28;20503;-82
2023/05/23 00:22:18;;;;;;;2.80;2.60;;;24.00;84.60;;;;;;5081880;28;20772;-82
2023/05/23 00:24:45;;;;;;;2.30;2.10;;;23.90;84.60;;;;;;5083299;28;20829;-88
2023/05/23 00:27:12;;;;;;;2.57;2.40;;;24.00;84.70;;;;;;5085749;28;20961;-88
2023/05/23 00:29:39;;;;;;;2.57;2.37;;;24.00;84.50;;;;;;5084558;28;20473;-82
2023/05/23 00:32:07;;;;;;;2.33;2.13;;;24.00;84.70;;;;;;5081702;28;20979;-81
2023/05/23 00:34:36;;;;;;;3.13;2.93;;;24.00;84.60;;;;;;5082091;28;20821;-81
2023/05/23 00:37:04;;;;;;;2.30;2.20;;;23.90;84.50;;;;;;5083644;28;20432;-82
2023/05/23 00:39:31;;;;;;;2.90;2.70;;;24.00;84.60;;;;;;5082441;28;20512;-81
2023/05/23 00:41:58;;;;;;;2.80;2.57;;;23.90;84.60;;;;;;5076628;28;20445;-83
2023/05/23 00:44:25;;;;;;;2.03;1.93;;;23.90;84.60;;;;;;5073018;28;20443;-84
2023/05/23 00:46:54;;;;;;;2.13;1.90;;;24.00;84.70;;;;;;5073412;28;20497;-83
2023/05/23 00:49:23;;;;;;;2.10;1.90;;;24.00;84.60;;;;;;5073478;28;20807;-83
2023/05/23 00:51:50;;;;;;;2.00;1.90;;;23.90;84.70;;;;;;5073224;28;20436;-83
2023/05/23 00:54:20;;;;;;;2.10;1.90;;;23.90;84.70;;;;;;5073165;28;20446;-83
2023/05/23 00:56:47;;;;;;;2.50;2.30;;;23.90;84.90;;;;;;5077169;28;20435;-83
2023/05/23 00:59:15;;;;;;;2.03;1.93;;;23.90;85.10;;;;;;5077217;28;20486;-83
2023/05/23 01:01:45;;;;;;;2.03;1.93;;;24.00;85.00;;;;;;5077138;28;20461;-83
2023/05/23 01:04:13;;;;;;;2.37;2.17;;;23.90;84.80;;;;;;5077160;28;20523;-83
2023/05/23 01:06:45;;;;;;;2.43;2.23;;;23.90;84.80;;;;;;5076967;28;20837;-83
2023/05/23 01:09:12;;;;;;;2.20;2.10;;;24.00;85.10;;;;;;5077226;28;20436;-83
2023/05/23 01:11:44;;;;;;;2.07;1.97;;;23.90;84.70;;;;;;5077033;28;20436;-83
2023/05/23 01:14:13;;;;;;;2.00;1.90;;;23.90;84.70;;;;;;5077057;28;20466;-82
2023/05/23 01:16:47;;;;;;;2.53;2.07;;;23.90;84.60;;;;;;5077268;28;20462;-82
2023/05/23 01:19:35;;;;;;;2.20;2.10;;;23.90;84.70;;;;;;5076923;28;20479;-83
2023/05/23 01:22:21;;;;;;;2.17;2.07;;;23.90;84.80;;;;;;5076967;28;20443;-83
2023/05/23 01:24:55;;;;;;;2.50;2.40;;;23.90;84.80;;;;;;5089528;28;20467;-83
2023/05/23 01:27:30;;;;;;;2.10;1.97;;;23.90;84.90;;;;;;5097350;28;20503;-83
2023/05/23 01:30:02;;;;;;;1.80;1.70;;;23.90;84.70;;;;;;5097432;28;20454;-83
2023/05/23 01:32:30;;;;;;;2.10;2.00;;;23.90;84.60;;;;;;5096437;28;20474;-83
2023/05/23 01:34:58;;;;;;;2.10;1.90;;;23.90;84.60;;;;;;5096831;28;20446;-83
2023/05/23 01:37:25;;;;;;;1.97;1.87;;;23.90;84.70;;;;;;5096958;28;20446;-83
2023/05/23 01:39:51;;;;;;;2.50;2.30;;;23.90;84.80;;;;;;5096736;28;20487;-82
2023/05/23 01:42:18;;;;;;;2.33;2.20;;;23.90;84.80;;;;;;5096499;28;20446;-83
2023/05/23 01:44:46;;;;;;;1.90;1.70;;;23.90;84.40;;;;;;5096568;28;20437;-83
2023/05/23 01:47:15;;;;;;;2.10;2.00;;;23.90;84.80;;;;;;5097277;28;20791;-83
2023/05/23 01:49:43;;;;;;;2.30;2.20;;;23.90;84.70;;;;;;5096763;28;20452;-82
2023/05/23 01:52:10;;;;;;;2.10;2.00;;;23.90;84.70;;;;;;5096507;28;20434;-83
2023/05/23 01:54:41;;;;;;;2.27;1.90;;;23.90;84.80;;;;;;5096361;28;20439;-83
2023/05/23 01:57:08;;;;;;;2.17;2.07;;;24.10;84.70;;;;;;5096414;28;20438;-83
2023/05/23 01:59:35;;;;;;;1.83;1.73;;;23.90;84.70;;;;;;5096468;28;20509;-83
2023/05/23 02:02:02;;;;;;;5.30;2.00;;;23.90;84.60;;;;;;5096260;28;20469;-85
2023/05/23 02:04:31;;;;;;;2.23;2.03;;;23.90;84.70;;;;;;5096272;28;20948;-83
2023/05/23 02:06:57;;;;;;;2.07;1.63;;;23.90;85.00;;;;;;5096237;28;20786;-89
2023/05/23 02:09:24;;;;;;;1.90;1.80;;;23.90;84.80;;;;;;5096039;28;20435;-82
2023/05/23 02:11:51;;;;;;;2.30;2.10;;;23.80;84.30;;;;;;5096255;28;20439;-83
2023/05/23 02:14:18;;;;;;;2.20;2.10;;;24.00;84.60;;;;;;5096225;28;20432;-83
2023/05/23 02:16:45;;;;;;;2.30;2.10;;;23.90;84.60;;;;;;5096592;28;20773;-83
2023/05/23 02:19:11;;;;;;;1.87;1.77;;;23.90;84.60;;;;;;5095937;28;20467;-83
2023/05/23 02:21:40;;;;;;;1.70;1.60;;;23.90;85.50;;;;;;5096203;28;20859;-83
2023/05/23 02:24:06;;;;;;;2.00;1.90;;;23.80;84.80;;;;;;5095651;28;20823;-89
2023/05/23 02:26:33;;;;;;;2.10;2.00;;;23.80;84.60;;;;;;5095734;28;20451;-83
2023/05/23 02:29:00;;;;;;;2.23;2.07;;;23.80;84.60;;;;;;5095701;28;20915;-83
2023/05/23 02:31:27;;;;;;;1.80;1.70;;;23.90;84.50;;;;;;5095709;28;20467;-88
2023/05/23 02:33:54;;;;;;;1.67;1.57;;;23.80;84.40;;;;;;5095638;28;20457;-83
2023/05/23 02:36:21;;;;;;;2.03;1.93;;;23.90;84.80;;;;;;5095686;28;20525;-83
2023/05/23 02:38:49;;;;;;;2.47;2.27;;;23.80;84.60;;;;;;5095532;28;20531;-82
2023/05/23 02:41:16;;;;;;;1.77;1.67;;;23.90;85.50;;;;;;5095530;28;20447;-83
2023/05/23 02:43:44;;;;;;;3.23;2.20;;;23.80;84.40;;;;;;5095351;28;20443;-83
2023/05/23 02:46:12;;;;;;;2.00;1.90;;;23.80;84.20;;;;;;5095376;28;20440;-89
2023/05/23 02:48:39;;;;;;;1.93;1.83;;;23.80;84.20;;;;;;5095549;28;20478;-83
2023/05/23 02:51:05;;;;;;;3.70;1.80;;;23.80;84.40;;;;;;5095435;28;20451;-83
2023/05/23 02:53:32;;;;;;;1.90;1.80;;;23.80;84.30;;;;;;5095514;28;20450;-83
2023/05/23 02:56:00;;;;;;;1.93;1.83;;;23.80;84.10;;;;;;5095191;28;20435;-82
2023/05/23 02:58:27;;;;;;;2.53;1.97;;;23.80;84.30;;;;;;5095091;28;20927;-89
2023/05/23 03:00:54;;;;;;;1.63;1.53;;;23.80;84.50;;;;;;5095254;28;20491;-82
2023/05/23 03:03:21;;;;;;;1.60;1.50;;;23.80;84.60;;;;;;5095201;28;20465;-83
2023/05/23 03:05:48;;;;;;;2.87;2.07;;;23.90;85.10;;;;;;5095237;28;20449;-90
2023/05/23 03:08:14;;;;;;;1.87;1.77;;;23.80;84.90;;;;;;5095092;28;20478;-83
2023/05/23 03:10:41;;;;;;;1.80;1.70;;;23.80;84.80;;;;;;5095071;28;20446;-86
2023/05/23 03:13:09;;;;;;;1.80;1.70;;;23.80;84.50;;;;;;5094636;28;20516;-88
2023/05/23 03:15:36;;;;;;;2.03;1.93;;;23.80;84.60;;;;;;5094761;28;20439;-83
2023/05/23 03:18:03;;;;;;;1.90;1.80;;;23.80;84.50;;;;;;5094315;28;20435;-83
2023/05/23 03:20:30;;;;;;;2.30;2.13;;;23.80;84.30;;;;;;5095121;28;20487;-82
2023/05/23 03:22:56;;;;;;;1.90;1.80;;;23.80;84.30;;;;;;5094983;28;20446;-83
2023/05/23 03:25:23;;;;;;;1.77;1.67;;;23.80;84.60;;;;;;5094806;28;20569;-83
2023/05/23 03:27:50;;;;;;;2.43;1.63;;;23.80;84.60;;;;;;5094825;28;20440;-83
2023/05/23 03:30:18;;;;;;;1.60;1.50;;;23.80;84.80;;;;;;5094883;28;20449;-82
2023/05/23 03:32:45;;;;;;;1.70;1.60;;;23.80;84.60;;;;;;5094476;28;20485;-82
2023/05/23 03:35:12;;;;;;;1.93;1.80;;;23.80;84.40;;;;;;5094690;28;20824;-83
2023/05/23 03:37:39;;;;;;;2.20;1.63;;;23.80;84.90;;;;;;5094392;28;20440;-83
2023/05/23 03:40:07;;;;;;;2.10;2.00;;;23.80;84.60;;;;;;5094970;28;20514;-83
2023/05/23 03:42:34;;;;;;;1.80;1.70;;;23.80;84.50;;;;;;5094547;28;20438;-82
2023/05/23 03:45:00;;;;;;;2.00;1.90;;;23.80;84.50;;;;;;5094193;28;21001;-90
2023/05/23 03:47:28;;;;;;;1.80;1.70;;;23.80;84.50;;;;;;5094305;28;20443;-88
2023/05/23 03:49:55;;;;;;;1.60;1.50;;;24.00;84.80;;;;;;5094245;28;20946;-83
2023/05/23 03:52:22;;;;;;;1.83;1.73;;;23.80;84.50;;;;;;5094147;28;20447;-82
2023/05/23 03:54:49;;;;;;;1.97;1.77;;;23.80;84.50;;;;;;5094255;28;20799;-83
2023/05/23 03:57:16;;;;;;;1.50;1.40;;;23.80;84.30;;;;;;5094015;28;20443;-82
2023/05/23 03:59:43;;;;;;;1.70;1.60;;;23.80;84.60;;;;;;5093914;28;20527;-83
2023/05/23 04:02:10;;;;;;;1.70;1.60;;;23.80;84.70;;;;;;5093971;28;20517;-83
2023/05/23 04:04:38;;;;;;;1.90;1.80;;;23.80;84.70;;;;;;5094125;28;20955;-83
2023/05/23 04:07:05;;;;;;;1.67;1.57;;;23.80;84.70;;;;;;5093736;28;20424;-83
2023/05/23 04:09:32;;;;;;;1.70;1.60;;;23.80;84.60;;;;;;5093776;28;20442;-83
2023/05/23 04:11:58;;;;;;;1.73;1.63;;;23.70;84.40;;;;;;5093644;28;20438;-82
2023/05/23 04:14:26;;;;;;;1.73;1.63;;;23.70;84.50;;;;;;5093519;28;20786;-83
2023/05/23 04:16:53;;;;;;;1.90;1.80;;;23.80;84.60;;;;;;5093561;28;20442;-83
2023/05/23 04:19:20;;;;;;;1.93;1.83;;;23.80;84.50;;;;;;5093575;28;20463;-83
2023/05/23 04:21:50;;;;;;;2.03;1.83;;;23.80;84.60;;;;;;5092494;28;20449;-82
2023/05/23 04:24:17;;;;;;;2.03;1.93;;;23.80;84.90;;;;;;5089026;28;20505;-88
2023/05/23 04:26:44;;;;;;;1.80;1.70;;;23.80;84.90;;;;;;5085281;28;21330;-89
2023/05/23 04:29:11;;;;;;;1.60;1.50;;;23.70;84.50;;;;;;5082740;28;20436;-82
2023/05/23 04:31:38;;;;;;;1.60;1.50;;;23.70;84.40;;;;;;5069834;28;20873;-83
2023/05/23 04:34:05;;;;;;;1.80;1.70;;;23.80;84.70;;;;;;5073342;28;20432;-82
2023/05/23 04:36:31;;;;;;;1.30;1.20;;;23.80;84.30;;;;;;5073468;28;20446;-83
2023/05/23 04:38:59;;;;;;;2.00;1.90;;;23.70;84.40;;;;;;5062859;28;20441;-82
2023/05/23 04:41:27;;;;;;;1.73;1.63;;;23.70;84.20;;;;;;5061332;28;20480;-83
2023/05/23 04:43:54;;;;;;;1.80;1.70;;;23.70;84.80;;;;;;5072476;28;20794;-82
2023/05/23 04:46:25;;;;;;;1.50;1.40;;;23.70;84.90;;;;;;5058900;28;20449;-81
2023/05/23 04:48:52;;;;;;;1.70;1.60;;;23.70;84.80;;;;;;5053201;28;20514;-82
2023/05/23 04:51:20;;;;;;;5.23;2.97;;;23.70;84.70;;;;;;5052869;28;20453;-83
2023/05/23 04:53:47;;;;;;;5.30;4.17;;;23.70;84.30;;;;;;5052908;28;20441;-83
2023/05/23 04:56:19;;;;;;;3.73;2.83;;;23.60;83.90;;;;;;5067287;28;20449;-84
2023/05/23 04:58:46;;;;;;;3.60;2.70;;;23.60;84.40;;;;;;5093214;28;20443;-83
2023/05/23 05:01:14;;;;;;;3.60;2.43;;;23.60;84.20;;;;;;5082851;28;20490;-84
2023/05/23 05:03:41;;;;;;;4.33;2.30;;;23.60;84.20;;;;;;5073004;28;20470;-82
2023/05/23 05:06:08;;;;;;;2.93;1.90;;;23.50;83.70;;;;;;5083481;28;20451;-82
2023/05/23 05:08:35;;;;;;;3.07;1.90;;;23.50;83.90;;;;;;5069928;28;20966;-83
2023/05/23 05:11:01;;;;;;;2.70;2.00;;;23.50;83.80;;;;;;5081220;28;20451;-82
2023/05/23 05:13:29;;;;;;;2.90;2.40;;;23.50;83.90;;;;;;5072818;28;20452;-82
2023/05/23 05:15:57;;;;;;;2.60;2.40;;;23.60;84.10;;;;;;5073725;28;20436;-83
2023/05/23 05:18:25;;;;;;;2.50;2.30;;;23.70;84.70;;;;;;5074052;28;20451;-83
2023/05/23 05:20:52;;;;;;;2.07;1.97;;;23.60;84.20;;;;;;5082365;28;21000;-82
2023/05/23 05:23:19;;;;;;;2.10;2.00;;;23.50;83.90;;;;;;5078416;28;20965;-84
2023/05/23 05:25:46;;;;;;;2.50;2.30;;;23.60;84.00;;;;;;5074103;28;20444;-82
2023/05/23 05:28:13;;;;;;;2.53;2.33;;;23.60;84.90;;;;;;5078371;28;20435;-81
2023/05/23 05:30:41;;;;;;;3.43;2.50;;;23.50;83.80;;;;;;5059206;28;20455;-80
2023/05/23 05:33:09;;;;;;;2.53;2.33;;;23.70;83.80;;;;;;5067822;28;20439;-82
2023/05/23 05:35:37;;;;;;;2.87;2.00;;;23.60;84.10;;;;;;5072651;28;20490;-80
2023/05/23 05:38:04;;;;;;;3.00;2.37;;;23.60;83.70;;;;;;5072791;28;20531;-80
2023/05/23 05:40:32;;;;;;;2.70;2.50;;;23.60;83.20;;;;;;5072873;28;20485;-80
2023/05/23 05:42:58;;;;;;;3.00;2.17;;;23.60;83.00;;;;;;5077729;28;20435;-86
2023/05/23 05:45:25;;;;;;;2.10;1.90;;;23.60;83.10;;;;;;5079480;28;20435;-80
2023/05/23 05:47:53;;;;;;;2.90;2.70;;;23.60;83.30;;;;;;5076237;28;20450;-80
2023/05/23 05:50:20;;;;;;;2.87;2.40;;;23.50;83.20;;;;;;5081683;28;20451;-79
2023/05/23 05:52:47;;;;;;;3.00;2.70;;;23.50;83.40;;;;;;5093163;28;20427;-81
2023/05/23 05:55:14;;;;;;;2.70;2.50;;;23.50;83.50;;;;;;5096357;28;20528;-90
2023/05/23 05:57:41;;;;;;;2.77;2.13;;;23.50;83.80;;;;;;5096253;28;20450;-81
2023/05/23 06:00:12;;;;;;;5.87;2.40;;;23.60;83.90;;;;;;5096163;28;20477;-81
2023/05/23 06:02:39;;;;;;;2.73;2.53;;;23.60;83.90;;;;;;5096209;28;20464;-82
2023/05/23 06:05:11;;;;;;;3.17;2.63;;;23.60;84.10;;;;;;5087302;28;20444;-83
2023/05/23 06:07:37;;;;;;;2.57;2.20;;;23.60;84.20;;;;;;5075129;28;20470;-81
2023/05/23 06:10:05;;;;;;;2.80;2.60;;;23.60;84.30;;;;;;5074687;28;20444;-81
2023/05/23 06:12:32;;;;;;;2.27;2.17;;;23.60;84.20;;;;;;5075356;28;20443;-90
2023/05/23 06:14:59;;;;;;;3.40;2.17;;;23.60;84.30;;;;;;5074459;28;20440;-81
2023/05/23 06:17:25;;;;;;;2.70;2.50;;;23.60;85.20;;;;;;5074482;28;20448;-81
2023/05/23 06:19:52;;;;;;;2.73;2.30;;;23.70;84.60;;;;;;5075081;28;20941;-81
2023/05/23 06:22:20;;;;;;;2.40;2.20;;;23.70;84.50;;;;;;5074764;28;20509;-81
2023/05/23 06:24:47;;;;;;;2.73;2.53;;;23.70;84.60;;;;;;5086845;28;20857;-81
2023/05/23 06:27:14;;;;;;;2.33;2.13;;;23.70;84.60;;;;;;5094236;28;20809;-81
2023/05/23 06:29:41;;;;;;;2.60;2.37;;;23.60;84.60;;;;;;5094479;28;20810;-86
2023/05/23 06:32:07;;;;;;;2.80;2.37;;;23.70;85.60;;;;;;5087818;28;20476;-80
2023/05/23 06:34:34;;;;;;;2.67;2.47;;;23.60;84.70;;;;;;5076141;28;20450;-79
2023/05/23 06:37:01;;;;;;;2.57;2.37;;;23.60;84.50;;;;;;5093043;28;20450;-80
2023/05/23 06:39:29;;;;;;;2.70;2.50;;;23.60;84.70;;;;;;5095409;28;20786;-80
2023/05/23 06:41:56;;;;;;;2.40;2.20;;;23.60;84.70;;;;;;5095213;28;20479;-81
2023/05/23 06:44:23;;;;;;;2.20;2.10;;;23.60;84.70;;;;;;5095074;28;20449;-81
2023/05/23 06:46:50;;;;;;;2.50;2.30;;;23.60;84.70;;;;;;5095295;28;20817;-81
2023/05/23 06:49:16;;;;;;;2.27;2.17;;;23.80;85.00;;;;;;5095178;28;20442;-81
2023/05/23 06:51:43;;;;;;;2.70;2.50;;;23.60;84.40;;;;;;5094542;28;20439;-82
2023/05/23 06:54:10;;;;;;;2.40;2.20;;;23.70;84.80;;;;;;5094586;28;20527;-82
2023/05/23 06:56:38;;;;;;;2.50;2.30;;;23.60;85.00;;;;;;5094889;28;20941;-81
2023/05/23 06:59:05;;;;;;;2.50;2.30;;;23.60;84.80;;;;;;5094575;28;20439;-92
2023/05/23 07:01:32;;;;;;;2.83;2.23;;;23.70;84.90;;;;;;5094970;28;20498;-80
2023/05/23 07:03:59;;;;;;;3.00;2.63;;;23.60;84.90;;;;;;5094734;28;20523;-80
2023/05/23 07:06:27;;;;;;;2.73;2.20;;;23.70;85.00;;;;;;5094747;28;20436;-81
2023/05/23 07:08:53;;;;;;;2.47;2.27;;;23.80;85.30;;;;;;5094949;28;20775;-90
2023/05/23 07:11:21;;;;;;;3.10;2.80;;;23.60;84.90;;;;;;5094793;28;20438;-82
2023/05/23 07:13:49;;;;;;;2.67;2.47;;;23.60;85.10;;;;;;5094611;28;20457;-80
2023/05/23 07:16:16;;;;;;;2.80;2.50;;;23.60;84.90;;;;;;5094616;28;20438;-81
2023/05/23 07:18:43;;;;;;;3.47;2.50;;;23.60;84.90;;;;;;5094649;28;20439;-79
2023/05/23 07:21:10;;;;;;;3.37;3.07;;;23.80;85.10;;;;;;5094604;28;20487;-79
2023/05/23 07:23:36;;;;;;;3.57;3.23;;;23.60;85.00;;;;;;5094204;28;20463;-79
2023/05/23 07:26:03;;;;;;;2.80;2.60;;;23.60;85.30;;;;;;5093992;28;20442;-79
2023/05/23 07:28:30;;;;;;;2.53;2.33;;;23.60;85.20;;;;;;5088273;28;20440;-81
2023/05/23 07:30:58;;;;;;;2.20;2.00;;;23.60;84.90;;;;;;5074268;28;20793;-86
2023/05/23 07:33:25;;;;;;;2.80;2.60;;;23.60;85.10;;;;;;5073654;28;20443;-80
2023/05/23 07:35:52;;;;;;;2.70;2.50;;;23.60;85.10;;;;;;5073879;28;20436;-80
2023/05/23 07:38:19;;;;;;;2.53;2.30;;;23.60;85.10;;;;;;5074077;28;20439;-80
2023/05/23 07:40:46;;;;;;;2.50;2.30;;;23.70;85.20;;;;;;5074038;28;20560;-80
2023/05/23 07:43:13;;;;;;;2.67;2.47;;;23.60;85.30;;;;;;5073374;28;20440;-80
2023/05/23 07:45:40;;;;;;;2.60;2.33;;;23.60;85.30;;;;;;5073602;28;20444;-79
2023/05/23 07:48:08;;;;;;;3.50;2.90;;;23.70;85.50;;;;;;5073501;28;20523;-79
2023/05/23 07:50:35;;;;;;;2.83;2.63;;;23.70;85.50;;;;;;5073643;28;20448;-79
2023/05/23 07:53:02;;;;;;;2.97;2.77;;;23.60;85.10;;;;;;5073298;28;20437;-80
2023/05/23 07:55:29;;;;;;;4.73;2.80;;;23.60;85.20;;;;;;5073664;28;20447;-81
2023/05/23 07:57:55;;;;;;;4.57;3.13;;;23.60;85.30;;;;;;5073602;28;20531;-79
2023/05/23 08:00:22;;;;;;;2.50;2.30;;;23.60;85.20;;;;;;5073313;28;20460;-79
2023/05/23 08:02:49;;;;;;;2.90;2.43;;;23.70;85.40;;;;;;5072972;28;20486;-79
2023/05/23 08:05:18;;;;;;;3.17;2.50;;;23.60;85.20;;;;;;5073368;28;20436;-80
2023/05/23 08:07:45;;;;;;;3.00;2.77;;;23.60;85.40;;;;;;5073441;28;20851;-82
2023/05/23 08:10:12;;;;;;;2.80;2.60;;;23.60;85.20;;;;;;5073501;28;20451;-79
2023/05/23 08:12:38;;;;;;;3.50;2.60;;;23.60;85.20;;;;;;5073182;28;20452;-81
2023/05/23 08:15:06;;;;;;;3.10;2.60;;;23.60;85.30;;;;;;5073456;28;20444;-79
2023/05/23 08:17:33;;;;;;;2.97;2.77;;;23.60;85.40;;;;;;5073137;28;20503;-88
2023/05/23 08:20:01;;;;;;;3.33;3.03;;;23.80;85.60;;;;;;5073507;28;20448;-79
2023/05/23 08:22:29;;;;;;;3.10;2.80;;;23.60;85.60;;;;;;5073033;28;20495;-79
2023/05/23 08:24:56;;;;;;;2.50;2.30;;;23.60;85.60;;;;;;5073106;28;20564;-80
2023/05/23 08:27:22;;;;;;;2.57;2.37;;;23.60;86.00;;;;;;5085646;28;20432;-87
2023/05/23 08:29:49;;;;;;;3.17;2.87;;;23.60;85.90;;;;;;5092758;28;20449;-82
2023/05/23 08:32:16;;;;;;;3.70;2.60;;;23.70;85.80;;;;;;5091806;28;20447;-81
2023/05/23 08:34:43;;;;;;;2.83;2.63;;;23.60;85.80;;;;;;5092585;28;20965;-80
2023/05/23 08:37:09;;;;;;;3.03;2.80;;;23.60;85.40;;;;;;5092514;28;21153;-82
2023/05/23 08:39:38;;;;;;;2.77;2.50;;;23.60;86.00;;;;;;5093419;28;20453;-80
2023/05/23 08:42:05;;;;;;;5.20;3.47;;;23.60;85.70;;;;;;5093514;28;20493;-80
2023/05/23 08:44:32;;;;;;;3.03;2.67;;;23.60;85.50;;;;;;5093026;28;20447;-82
2023/05/23 08:47:04;;;;;;;3.17;2.90;;;23.60;85.80;;;;;;5093197;28;20439;-80
2023/05/23 08:49:31;;;;;;;3.40;2.57;;;23.60;85.70;;;;;;5093269;28;20473;-88
2023/05/23 08:52:02;;;;;;;2.67;2.47;;;23.60;85.90;;;;;;5093044;28;20447;-80
2023/05/23 08:54:29;;;;;;;2.93;2.63;;;23.60;85.90;;;;;;5092989;28;20445;-80
2023/05/23 08:56:57;;;;;;;2.97;2.40;;;23.60;85.40;;;;;;5092992;28;20454;-81
2023/05/23 08:59:26;;;;;;;2.40;2.20;;;23.60;85.60;;;;;;5093090;28;20439;-81
2023/05/23 09:01:55;;;;;;;2.83;2.63;;;23.60;86.10;;;;;;5092912;28;20495;-81
2023/05/23 09:04:22;;;;;;;3.23;2.93;;;23.60;86.10;;;;;;5093059;28;20443;-81
2023/05/23 09:06:49;;;;;;;2.80;2.60;;;23.60;86.10;;;;;;5092685;28;20435;-81
2023/05/23 09:09:16;;;;;;;2.73;2.53;;;23.60;85.90;;;;;;5093031;28;20443;-82
2023/05/23 09:11:44;;;;;;;2.30;2.10;;;23.60;85.60;;;;;;5092885;28;20439;-82
2023/05/23 09:14:14;;;;;;;5.33;2.67;;;23.60;85.80;;;;;;5093088;28;20457;-84
2023/05/23 09:16:41;;;;;;;3.30;3.00;;;23.60;86.00;;;;;;5095739;28;20446;-82
2023/05/23 09:19:12;;;;;;;3.00;2.70;;;23.60;85.70;;;;;;5096864;28;20791;-85
2023/05/23 09:21:42;;;;;;;3.50;2.60;;;23.60;86.00;;;;;;5096812;28;21009;-81
2023/05/23 09:24:09;;;;;;;2.00;1.80;;;23.60;85.80;;;;;;5096181;28;20475;-82
2023/05/23 09:26:37;;;;;;;2.50;2.30;;;23.60;85.90;;;;;;5090462;28;20449;-82
2023/05/23 09:29:06;;;;;;;2.20;2.07;;;23.60;85.90;;;;;;5076409;28;20444;-83
2023/05/23 09:31:35;;;;;;;2.67;2.33;;;23.60;85.90;;;;;;5076902;28;20899;-85
2023/05/23 09:34:02;;;;;;;3.80;2.53;;;23.60;86.00;;;;;;5076521;28;20439;-82
2023/05/23 09:36:31;;;;;;;4.00;2.53;;;23.60;85.90;;;;;;5076257;28;20443;-83
2023/05/23 09:39:01;;;;;;;2.60;2.40;;;23.60;85.90;;;;;;5076483;28;20459;-84
2023/05/23 09:41:31;;;;;;;3.90;2.37;;;23.60;85.80;;;;;;5076302;28;20490;-81
2023/05/23 09:43:58;;;;;;;3.97;2.60;;;23.60;85.70;;;;;;5076320;28;20489;-84
2023/05/23 09:46:28;;;;;;;2.90;2.60;;;23.60;85.90;;;;;;5076465;28;20451;-82
2023/05/23 09:48:59;;;;;;;3.87;2.87;;;23.60;86.00;;;;;;5075966;28;20440;-83
2023/05/23 09:51:27;;;;;;;2.83;2.63;;;23.60;86.10;;;;;;5075773;28;20443;-82
2023/05/23 09:53:55;;;;;;;4.27;3.43;;;23.60;86.10;;;;;;5075898;28;20804;-81
2023/05/23 09:56:24;;;;;;;2.67;2.47;;;23.60;86.30;;;;;;5075993;28;20462;-80
2023/05/23 09:58:51;;;;;;;2.87;2.60;;;23.60;86.60;;;;;;5075531;28;20449;-81
2023/05/23 10:01:18;;;;;;;2.90;2.57;;;23.60;86.10;;;;;;5074284;28;20452;-80
2023/05/23 10:03:49;;;;;;;3.63;2.33;;;23.60;86.30;;;;;;5075731;28;20953;-80
2023/05/23 10:06:24;;;;;;;2.77;2.43;;;23.60;86.20;;;;;;5075651;28;20442;-81
2023/05/23 10:08:56;;;;;;;3.60;2.50;;;23.60;86.30;;;;;;5075686;28;20918;-83
2023/05/23 10:11:56;;;;;;;2.20;2.00;;;23.60;86.10;;;;;;5075333;28;20452;-81
2023/05/23 10:14:23;;;;;;;2.70;2.17;;;23.60;86.30;;;;;;5075252;28;20471;-81
2023/05/23 10:17:01;;;;;;;2.53;2.33;;;23.60;85.80;;;;;;5075423;28;20436;-79
2023/05/23 10:19:38;;;;;;;2.60;2.40;;;23.60;86.10;;;;;;5074961;28;20447;-79
2023/05/23 10:22:10;;;;;;;2.30;2.10;;;23.60;86.10;;;;;;5075233;28;20471;-80
2023/05/23 10:24:37;;;;;;;2.53;2.33;;;23.60;86.20;;;;;;5086212;28;20502;-79
2023/05/23 10:27:04;;;;;;;2.80;2.47;;;23.60;86.10;;;;;;5093655;28;20439;-79
2023/05/23 10:29:32;;;;;;;3.00;2.50;;;23.60;86.00;;;;;;5095357;28;20447;-81
2023/05/23 10:32:01;;;;;;;3.10;2.90;;;23.60;86.10;;;;;;5095535;28;20960;-80
2023/05/23 10:34:34;;;;;;;2.63;2.33;;;23.60;86.10;;;;;;5095068;28;20446;-84
2023/05/23 10:37:03;;;;;;;2.60;2.40;;;23.60;86.00;;;;;;5095451;28;20782;-82
2023/05/23 10:39:49;;;;;;;2.50;2.30;;;23.60;86.00;;;;;;5095139;28;20492;-80
2023/05/23 10:42:20;;;;;;;2.40;2.17;;;23.60;86.40;;;;;;5094951;28;20562;-84
2023/05/23 10:44:47;;;;;;;3.03;2.73;;;23.60;86.00;;;;;;5095014;28;20934;-86
2023/05/23 10:47:26;;;;;;;3.30;2.40;;;23.60;86.10;;;;;;5094770;28;20434;-79
2023/05/23 10:49:54;;;;;;;3.20;2.20;;;23.60;86.90;;;;;;5094812;28;20454;-81
2023/05/23 10:52:25;;;;;;;2.90;2.70;;;23.60;85.90;;;;;;5094338;28;20852;-81
2023/05/23 10:54:55;;;;;;;3.37;2.80;;;23.60;85.40;;;;;;5094770;28;20458;-87
2023/05/23 10:57:25;;;;;;;2.10;1.90;;;23.60;85.20;;;;;;5094776;28;20526;-82
2023/05/23 10:59:52;;;;;;;2.57;2.37;;;23.60;85.30;;;;;;5094760;28;20465;-88
2023/05/23 11:02:26;;;;;;;1.97;1.57;;;23.70;85.30;;;;;;5094857;28;20489;-81
2023/05/23 11:05:23;;;;;;;2.60;2.30;;;23.60;85.20;;;;;;5094468;28;20802;-88
2023/05/23 11:08:08;;;;;;;2.40;2.20;;;23.60;85.10;;;;;;5091482;28;20540;-85
2023/05/23 11:13:55;;;;;;;2.60;2.40;;;23.60;85.20;;;;;;5105888;27;1352567;-81
2023/05/23 11:16:25;;;;;;;2.23;2.07;;;23.60;85.00;;;;;;5131233;28;20292;-79
2023/05/23 11:18:52;;;;;;;2.40;2.20;;;23.60;85.20;;;;;;5131449;28;20461;-88
2023/05/23 11:21:20;;;;;;;2.40;2.20;;;23.60;85.50;;;;;;5131119;28;20438;-79
2023/05/23 11:23:46;;;;;;;2.70;2.50;;;23.60;85.20;;;;;;5131232;28;20439;-79
2023/05/23 11:26:31;;;;;;;2.20;2.00;;;23.70;85.00;;;;;;5131224;28;20426;-79
2023/05/23 11:29:02;;;;;;;2.43;2.07;;;23.60;84.80;;;;;;5129839;28;20779;-82
2023/05/23 11:31:28;;;;;;;2.30;2.03;;;23.60;85.20;;;;;;5113895;28;20475;-80
2023/05/23 11:33:55;;;;;;;1.90;1.80;;;23.60;84.70;;;;;;5110110;28;20480;-88
2023/05/23 11:36:22;;;;;;;2.20;2.10;;;23.60;84.70;;;;;;5110483;28;20790;-80
2023/05/23 11:38:51;;;;;;;2.30;2.10;;;23.60;84.90;;;;;;5110240;28;20442;-80
2023/05/23 11:41:18;;;;;;;2.30;2.10;;;23.60;84.80;;;;;;5110251;28;20542;-79
2023/05/23 11:43:50;;;;;;;1.93;1.70;;;23.60;84.80;;;;;;5110317;28;20495;-78
2023/05/23 11:46:19;;;;;;;2.40;2.20;;;23.60;85.10;;;;;;5110229;28;20439;-88
2023/05/23 11:48:46;;;;;;;2.83;1.80;;;23.60;85.60;;;;;;5110354;28;20446;-80
2023/05/23 11:51:13;;;;;;;2.33;2.13;;;23.60;85.00;;;;;;5110098;28;20774;-79
2023/05/23 11:53:40;;;;;;;3.00;1.97;;;23.60;85.20;;;;;;5110239;28;20439;-79
2023/05/23 11:56:08;;;;;;;2.57;2.37;;;23.60;85.10;;;;;;5110354;28;20438;-87
2023/05/23 11:58:36;;;;;;;2.20;2.00;;;23.60;85.40;;;;;;5110226;28;20445;-83
2023/05/23 12:01:05;;;;;;;2.17;2.07;;;23.60;85.40;;;;;;5113574;28;20556;-83
2023/05/23 12:03:34;;;;;;;2.43;2.23;;;23.60;85.20;;;;;;5110113;28;20526;-83
2023/05/23 12:06:01;;;;;;;2.33;2.10;;;23.60;85.50;;;;;;5109856;28;20439;-83
2023/05/23 12:08:28;;;;;;;2.23;2.10;;;23.60;85.10;;;;;;5110250;28;20439;-83
2023/05/23 12:10:58;;;;;;;2.30;2.10;;;23.60;85.20;;;;;;5109011;28;20445;-89
2023/05/23 12:13:26;;;;;;;2.30;1.97;;;23.60;85.80;;;;;;5108836;28;20852;-83
2023/05/23 12:15:55;;;;;;;2.00;1.80;;;23.70;85.50;;;;;;5109521;28;20434;-83
2023/05/23 12:18:22;;;;;;;2.00;1.80;;;23.70;85.50;;;;;;5107691;28;20443;-82
2023/05/23 12:20:50;;;;;;;2.40;2.20;;;23.70;85.40;;;;;;5109437;28;20768;-80
2023/05/23 12:23:21;;;;;;;1.80;1.70;;;23.70;85.20;;;;;;5104371;28;20436;-79
2023/05/23 12:25:51;;;;;;;2.17;2.03;;;23.70;85.30;;;;;;5095850;28;20448;-80
2023/05/23 12:28:18;;;;;;;1.97;1.87;;;23.70;85.40;;;;;;5095699;28;20437;-81
2023/05/23 12:30:44;;;;;;;2.00;1.80;;;23.80;85.30;;;;;;5095471;28;20962;-79
2023/05/23 12:33:12;;;;;;;2.13;1.93;;;23.80;85.40;;;;;;5095761;28;21026;-80
2023/05/23 12:35:42;;;;;;;2.60;2.03;;;23.80;85.00;;;;;;5095630;28;20441;-87
2023/05/23 12:38:15;;;;;;;2.20;1.97;;;23.80;85.20;;;;;;5095485;28;20438;-82
2023/05/23 12:40:42;;;;;;;2.03;1.83;;;23.90;85.20;;;;;;5095389;28;20447;-83
2023/05/23 12:43:09;;;;;;;2.37;2.10;;;23.90;85.10;;;;;;5095522;28;20439;-82
2023/05/23 12:45:37;;;;;;;1.93;1.83;;;23.90;85.00;;;;;;5095588;28;20446;-84
2023/05/23 12:48:05;;;;;;;1.90;1.70;;;23.90;84.90;;;;;;5095729;28;20432;-82
2023/05/23 12:50:32;;;;;;;1.67;1.57;;;23.90;85.20;;;;;;5077649;28;20445;-81
2023/05/23 12:52:59;;;;;;;2.00;1.87;;;23.90;84.80;;;;;;5095146;28;20480;-81
2023/05/23 12:55:27;;;;;;;2.27;1.73;;;23.90;85.60;;;;;;5095672;28;20436;-80